Time;durP1;ratioP1;P1;durP2;ratioP2;P2;SDS_P1;SDS_P2;PMS_P1;PMS_P2;Temp;Humidity;BMP_temperature;BMP_pressure;BME280_temperature;BME280_humidity;BME280_pressure;Samples;Min_cycle;Max_cycle;Signal;HPM_P1;HPM_P2
2023/08/15 07:23:27;;;;;;;10.50;5.60;;;;;;;-145.79;76.60;76813.50;5245275;27;1959731;-73
2023/08/15 07:25:58;;;;;;;20.00;7.30;;;;;;;-145.79;76.96;76809.25;5300715;28;20523;-70
2023/08/15 07:28:30;;;;;;;15.60;6.15;;;;;;;-145.79;76.94;76805.00;5300747;28;20029;-70
2023/08/15 07:31:01;;;;;;;9.80;6.07;;;;;;;-145.79;76.79;76798.66;5300038;28;20028;-69
2023/08/15 07:33:32;;;;;;;8.23;4.93;;;;;;;-145.79;76.61;76796.53;5297581;28;20052;-71
2023/08/15 07:36:04;;;;;;;9.73;4.93;;;;;;;-145.79;76.37;76798.66;5299553;28;20028;-71
2023/08/15 07:38:35;;;;;;;8.43;5.13;;;;;;;-145.79;75.30;76790.19;5299569;28;20020;-70
2023/08/15 07:41:06;;;;;;;9.25;4.72;;;;;;;-145.79;75.49;76783.81;5300579;28;20531;-69
2023/08/15 07:43:38;;;;;;;12.32;5.32;;;;;;;-145.79;75.14;76777.47;5291713;28;20063;-69
2023/08/15 07:46:09;;;;;;;7.05;4.30;;;;;;;-145.79;75.54;76771.09;5289751;28;20025;-72
2023/08/15 07:48:42;;;;;;;8.20;4.70;;;;;;;-145.79;74.76;76769.00;5298269;28;20438;-72
2023/08/15 07:51:13;;;;;;;6.07;4.15;;;;;;;-145.79;74.93;76758.38;5292174;28;20029;-72
2023/08/15 07:53:45;;;;;;;9.52;4.63;;;;;;;-145.79;75.05;76764.75;5300028;28;20035;-71
2023/08/15 07:56:16;;;;;;;8.68;4.25;;;;;;;-145.79;74.60;76762.63;5300600;28;20494;-71
2023/08/15 07:58:48;;;;;;;8.52;4.25;;;;;;;-145.79;74.74;76754.16;5299304;28;20024;-71
2023/08/15 08:01:19;;;;;;;8.27;4.28;;;;;;;-145.79;75.20;76745.69;5299930;28;20074;-72
2023/08/15 08:03:50;;;;;;;8.05;4.65;;;;;;;-145.79;74.48;76745.69;5294444;28;20467;-71
2023/08/15 08:06:21;;;;;;;9.68;5.75;;;;;;;-145.79;74.21;76741.44;5299343;28;20151;-71
2023/08/15 08:08:53;;;;;;;7.28;3.97;;;;;;;-145.79;74.47;76737.19;5292855;28;20070;-71
2023/08/15 08:11:24;;;;;;;10.43;5.05;;;;;;;-145.79;73.58;76739.31;5300046;28;20035;-70
2023/08/15 08:13:56;;;;;;;6.38;4.05;;;;;;;-145.79;73.87;76735.06;5298814;28;20516;-69
2023/08/15 08:16:28;;;;;;;7.63;4.28;;;;;;;-145.79;73.27;76735.06;5299260;28;20111;-69
2023/08/15 08:18:59;;;;;;;7.50;4.07;;;;;;;-145.79;73.15;76718.13;5298963;28;20671;-70
2023/08/15 08:21:33;;;;;;;11.05;5.25;;;;;;;-145.79;72.58;76716.00;5296142;28;20052;-69
2023/08/15 08:24:05;;;;;;;6.18;3.75;;;;;;;-145.79;71.71;76711.75;5293805;28;20521;-69
2023/08/15 08:26:36;;;;;;;8.55;4.55;;;;;;;-145.79;71.41;76716.00;5297568;28;20044;-70
2023/08/15 08:29:08;;;;;;;9.73;4.15;;;;;;;-145.79;71.42;76720.25;5299302;28;20445;-70
2023/08/15 08:31:39;;;;;;;9.27;3.70;;;;;;;-145.79;71.31;76716.00;5299671;28;20036;-70
2023/08/15 08:34:14;;;;;;;7.55;3.58;;;;;;;-145.79;71.83;76703.28;5288365;28;20036;-70
2023/08/15 08:36:45;;;;;;;8.80;3.90;;;;;;;-145.79;71.69;76707.53;5285517;28;20028;-71
2023/08/15 08:39:16;;;;;;;8.90;3.85;;;;;;;-145.79;71.54;76699.06;5285300;28;20025;-71
2023/08/15 08:41:48;;;;;;;7.32;4.20;;;;;;;-145.79;71.78;76703.28;5283004;28;20039;-70
2023/08/15 08:44:21;;;;;;;6.47;3.83;;;;;;;-145.79;71.09;76703.28;5282973;28;20031;-70
2023/08/15 08:46:52;;;;;;;8.63;3.90;;;;;;;-145.79;70.74;76703.28;5285057;28;20029;-69
2023/08/15 08:49:26;;;;;;;8.60;3.63;;;;;;;-145.79;71.14;76703.28;5283981;28;20111;-69
2023/08/15 08:51:59;;;;;;;8.48;3.25;;;;;;;-145.79;71.30;76699.06;5285322;28;20033;-69
2023/08/15 08:54:30;;;;;;;11.25;4.00;;;;;;;-145.79;71.82;76679.97;5284367;28;20025;-69
2023/08/15 08:57:04;;;;;;;7.18;3.95;;;;;;;-145.79;71.05;76669.38;5284215;28;20052;-68
2023/08/15 08:59:37;;;;;;;10.00;4.10;;;;;;;-145.79;70.13;76660.91;5279151;28;20495;-78
2023/08/15 09:02:11;;;;;;;7.18;3.78;;;;;;;-145.79;69.62;76654.53;5284298;28;20032;-76
2023/08/15 09:04:43;;;;;;;7.85;3.72;;;;;;;-145.79;69.41;76635.47;5284985;28;20028;-79
2023/08/15 09:07:15;;;;;;;8.52;3.90;;;;;;;-145.79;68.50;76631.22;5285273;28;20531;-82
2023/08/15 09:09:46;;;;;;;8.10;3.75;;;;;;;-145.79;68.66;76639.72;5283669;28;20040;-82
2023/08/15 09:12:37;;;;;;;10.70;4.25;;;;;;;-145.79;69.15;76635.47;5285436;28;20020;-82
2023/08/15 09:15:10;;;;;;;8.73;4.47;;;;;;;-145.79;69.58;76631.22;5277674;28;20030;-79
2023/08/15 09:17:43;;;;;;;13.73;10.63;;;;;;;-145.79;69.24;76627.00;5283520;28;20020;-78
2023/08/15 09:20:18;;;;;;;8.00;3.50;;;;;;;-145.79;69.38;76627.00;5280225;28;20029;-75
2023/08/15 09:22:50;;;;;;;15.32;11.82;;;;;;;-145.79;68.90;76610.03;5283476;28;20054;-76
2023/08/15 09:25:25;;;;;;;9.07;3.20;;;;;;;-145.79;68.31;76597.31;5280524;28;20037;-76
2023/08/15 09:27:56;;;;;;;7.43;4.55;;;;;;;-145.79;67.93;76605.81;5280101;28;20033;-76
2023/08/15 09:30:28;;;;;;;6.55;2.97;;;;;;;-145.79;67.31;76607.91;5282322;28;20031;-76
2023/08/15 09:33:01;;;;;;;8.13;3.03;;;;;;;-145.79;67.14;76605.81;5282665;28;20025;-75
2023/08/15 09:35:32;;;;;;;8.18;3.22;;;;;;;-145.79;66.25;76622.75;5284149;28;20024;-75
2023/08/15 09:38:06;;;;;;;6.20;2.92;;;;;;;-145.79;66.73;76622.75;5281257;28;20023;-75
2023/08/15 09:40:37;;;;;;;14.48;12.23;;;;;;;-145.79;66.77;76616.41;5276476;28;20479;-75
2023/08/15 09:43:15;;;;;;;8.00;3.70;;;;;;;-145.79;66.91;76622.75;5279906;28;20052;-75
2023/08/15 09:45:46;;;;;;;6.88;3.10;;;;;;;-145.79;66.96;76627.00;5280683;28;20028;-75
2023/08/15 09:48:22;;;;;;;8.63;3.60;;;;;;;-145.79;67.61;76622.75;5284009;28;20024;-74
2023/08/15 09:50:55;;;;;;;7.30;3.13;;;;;;;-145.79;67.83;76618.53;5274411;28;20895;-77
2023/08/15 09:53:27;;;;;;;9.48;3.42;;;;;;;-145.79;67.05;76622.75;5276295;28;20025;-76
2023/08/15 09:56:01;;;;;;;6.65;3.67;;;;;;;-145.79;67.04;76612.16;5278759;28;20081;-74
2023/08/15 09:58:32;;;;;;;7.70;4.40;;;;;;;-145.79;66.66;76618.53;5282563;28;20036;-74
2023/08/15 10:01:06;;;;;;;8.10;4.10;;;;;;;-145.79;66.71;76610.03;5281374;28;20509;-73
2023/08/15 10:03:39;;;;;;;9.80;4.30;;;;;;;-145.79;66.00;76618.53;5281509;28;20025;-74
2023/08/15 10:06:10;;;;;;;7.88;3.78;;;;;;;-145.79;65.70;76618.53;5282712;28;20112;-73
2023/08/15 10:08:44;;;;;;;7.00;3.33;;;;;;;-145.79;65.92;76629.13;5276426;28;20167;-75
2023/08/15 10:11:17;;;;;;;7.43;3.55;;;;;;;-145.79;66.01;76622.75;5278816;28;20356;-74
2023/08/15 10:13:50;;;;;;;6.40;3.10;;;;;;;-145.79;66.17;76627.00;5279481;28;20544;-74
2023/08/15 10:16:21;;;;;;;7.70;3.22;;;;;;;-145.79;66.30;76622.75;5273599;28;20036;-73
2023/08/15 10:19:02;;;;;;;6.53;3.40;;;;;;;-145.79;66.39;76622.75;5278841;28;20025;-75
2023/08/15 10:21:48;;;;;;;9.82;4.97;;;;;;;-145.79;65.98;76620.63;5277083;28;20049;-75
2023/08/15 10:24:21;;;;;;;33.45;28.40;;;;;;;-145.79;66.02;76629.13;5275239;28;20063;-75
2023/08/15 10:26:53;;;;;;;7.95;3.33;;;;;;;-145.79;65.39;76616.41;5274833;28;20151;-78
2023/08/15 10:29:25;;;;;;;6.32;3.78;;;;;;;-145.79;65.38;76601.56;5282629;28;20028;-80
2023/08/15 10:32:00;;;;;;;5.85;2.80;;;;;;;-145.79;65.21;76597.31;5283295;28;20025;-77
2023/08/15 10:34:33;;;;;;;8.38;3.67;;;;;;;-145.79;64.17;76580.38;5282430;28;20028;-78
2023/08/15 10:37:29;;;;;;;9.88;5.60;;;;;;;-145.79;63.67;76578.25;5269850;28;20435;-78
2023/08/15 10:40:08;;;;;;;13.52;9.05;;;;;;;-145.79;62.67;76567.66;5269023;28;20493;-79
2023/08/15 10:43:01;;;;;;;16.48;4.43;;;;;;;-145.79;61.69;76535.88;5274033;28;20033;-79
2023/08/15 10:45:43;;;;;;;5.97;2.70;;;;;;;-145.79;59.98;76538.00;5273597;28;20036;-79
2023/08/15 10:48:15;;;;;;;7.15;3.00;;;;;;;-145.79;59.00;76529.50;5267925;28;20028;-78
2023/08/15 10:50:49;;;;;;;8.48;3.20;;;;;;;-145.79;59.52;76516.78;5276670;28;20044;-79
2023/08/15 10:53:22;;;;;;;8.82;4.03;;;;;;;-145.79;59.84;76491.38;5274665;28;20111;-79
2023/08/15 10:55:54;;;;;;;7.60;2.85;;;;;;;-145.79;59.69;76501.97;5281408;28;20025;-77
2023/08/15 10:58:26;;;;;;;7.38;2.60;;;;;;;-145.79;59.26;76493.50;5267356;28;20373;-78
2023/08/15 11:00:58;;;;;;;6.72;3.75;;;;;;;-145.79;58.92;76504.09;5268481;28;20421;-78
2023/08/15 11:03:30;;;;;;;6.95;2.90;;;;;;;-145.79;59.03;76489.25;5266732;28;20154;-77
2023/08/15 11:06:13;;;;;;;7.53;2.42;;;;;;;-145.79;58.99;76480.78;5277968;28;20051;-77
2023/08/15 11:08:50;;;;;;;4.63;2.20;;;;;;;-145.79;58.68;76478.66;5280835;28;20024;-77
2023/08/15 11:11:22;;;;;;;5.43;2.60;;;;;;;-145.79;58.37;76474.41;5272502;28;20093;-76
2023/08/15 11:13:55;;;;;;;3.72;2.35;;;;;;;-145.79;58.56;76470.19;5282561;28;20017;-76
2023/08/15 11:16:27;;;;;;;12.90;11.60;;;;;;;-145.79;58.42;76451.09;5274216;28;20032;-76
2023/08/15 11:18:58;;;;;;;12.48;5.97;;;;;;;-145.79;56.92;76446.88;5282348;28;20400;-79
2023/08/15 11:21:29;;;;;;;8.10;3.08;;;;;;;-145.79;56.65;76434.16;5279902;28;20058;-77
2023/08/15 11:24:01;;;;;;;5.90;2.40;;;;;;;-145.79;56.43;76436.28;5281422;28;20025;-77
2023/08/15 11:26:32;;;;;;;4.45;2.35;;;;;;;-145.79;56.68;76423.56;5282923;28;20464;-77
2023/08/15 11:29:04;;;;;;;4.07;2.40;;;;;;;-145.79;56.36;76421.44;5277419;28;20078;-77
2023/08/15 11:31:35;;;;;;;5.65;3.10;;;;;;;-145.79;55.83;76421.44;5280452;28;20115;-77
2023/08/15 11:34:07;;;;;;;5.60;2.50;;;;;;;-145.79;56.24;76434.16;5281042;28;20032;-77
2023/08/15 11:36:39;;;;;;;7.30;3.17;;;;;;;-145.79;56.40;76440.50;5281770;28;20044;-77
2023/08/15 11:39:12;;;;;;;9.73;4.40;;;;;;;-145.79;56.65;76448.97;5282171;28;20024;-77
2023/08/15 11:41:45;;;;;;;8.90;3.72;;;;;;;-145.79;56.49;76451.09;5278805;28;20037;-76
2023/08/15 11:44:20;;;;;;;5.60;2.50;;;;;;;-145.79;56.90;76440.50;5281352;28;20476;-77
2023/08/15 11:46:52;;;;;;;5.75;2.63;;;;;;;-145.79;56.24;76419.31;5282495;28;20471;-76
2023/08/15 11:49:23;;;;;;;6.05;2.70;;;;;;;-145.79;56.18;76419.31;5278179;28;20028;-76
2023/08/15 11:52:02;;;;;;;4.78;2.70;;;;;;;-145.79;55.99;76419.31;5281752;28;20090;-80
2023/08/15 11:54:34;;;;;;;8.05;3.45;;;;;;;-145.79;57.30;76427.78;5280403;28;20023;-78
2023/08/15 11:57:05;;;;;;;7.57;3.13;;;;;;;-145.79;58.15;76444.75;5282436;28;20115;-80
2023/08/15 11:59:36;;;;;;;8.35;3.22;;;;;;;-145.79;58.64;76448.97;5281735;28;20113;-80
2023/08/15 12:02:10;;;;;;;6.13;2.70;;;;;;;-145.79;59.21;76457.47;5279238;28;20063;-82
2023/08/15 12:04:41;;;;;;;4.90;3.05;;;;;;;-145.79;59.43;76455.34;5280401;28;20387;-80
2023/08/15 12:07:13;;;;;;;7.93;2.95;;;;;;;-145.79;59.99;76457.47;5275336;28;20029;-78
2023/08/15 12:09:45;;;;;;;5.25;2.72;;;;;;;-145.79;58.56;76476.53;5284927;28;20036;-77
2023/08/15 12:12:19;;;;;;;4.68;2.60;;;;;;;-145.79;59.16;76461.69;5285525;28;20021;-79
2023/08/15 12:14:51;;;;;;;5.57;2.60;;;;;;;-145.79;59.30;76459.56;5281515;28;20052;-75
2023/08/15 12:17:22;;;;;;;7.60;3.20;;;;;;;-145.79;58.97;76478.66;5270324;28;20016;-76
2023/08/15 12:19:54;;;;;;;5.57;2.83;;;;;;;-145.79;59.03;76461.69;5271161;28;20049;-78
2023/08/15 12:22:25;;;;;;;5.82;2.90;;;;;;;-145.79;58.90;76412.97;5275479;28;20044;-77
2023/08/15 12:24:56;;;;;;;6.18;3.03;;;;;;;-145.79;58.32;76404.47;5284634;28;20020;-77
2023/08/15 12:27:28;;;;;;;6.38;3.25;;;;;;;-145.79;57.09;76410.84;5277843;28;20189;-77
2023/08/15 12:30:00;;;;;;;3.88;2.63;;;;;;;-145.79;56.41;76391.78;5274327;28;20479;-88
2023/08/15 12:32:32;;;;;;;7.55;3.30;;;;;;;-145.79;56.13;76347.25;5283845;28;20170;-89
2023/08/15 12:35:04;;;;;;;5.50;2.75;;;;;;;-145.79;54.35;76362.09;5280347;28;20025;-75
2023/08/15 12:37:35;;;;;;;7.43;3.05;;;;;;;-145.79;56.08;76359.97;5271631;28;20222;-74
2023/08/15 12:40:07;;;;;;;6.55;3.58;;;;;;;-145.79;56.28;76343.03;5271806;28;20052;-77
2023/08/15 12:42:38;;;;;;;5.88;2.90;;;;;;;-145.79;55.81;76328.19;5276454;28;20479;-77
2023/08/15 12:45:09;;;;;;;10.95;3.58;;;;;;;-145.79;55.10;76317.59;5272093;28;20476;-78
2023/08/15 12:47:41;;;;;;;62.47;9.90;;;;;;;-145.79;53.80;76304.88;5268667;28;20020;-78
2023/08/15 12:50:13;;;;;;;5.22;2.72;;;;;;;-145.79;54.15;76313.34;5278170;28;20031;-78
2023/08/15 12:52:44;;;;;;;5.85;3.33;;;;;;;-145.79;53.61;76287.94;5281570;28;20036;-75
2023/08/15 12:55:16;;;;;;;4.88;2.47;;;;;;;-145.79;53.12;76266.75;5278561;28;20029;-79
2023/08/15 12:57:47;;;;;;;3.67;2.33;;;;;;;-145.79;52.25;76251.91;5268704;28;20043;-77
2023/08/15 13:00:19;;;;;;;5.35;2.20;;;;;;;-145.79;51.23;76292.16;5283802;28;20020;-77
2023/08/15 13:02:51;;;;;;;7.38;5.68;;;;;;;-145.79;51.97;76304.88;5284152;28;20048;-79
2023/08/15 13:05:23;;;;;;;5.40;3.30;;;;;;;-145.79;52.69;76296.41;5284936;28;20145;-78
2023/08/15 13:07:54;;;;;;;7.20;3.05;;;;;;;-145.79;51.99;76283.69;5284329;28;20133;-80
2023/08/15 13:10:25;;;;;;;6.40;2.83;;;;;;;-145.79;51.16;76254.03;5284327;28;20040;-82
2023/08/15 13:12:57;;;;;;;5.30;2.70;;;;;;;-145.79;50.86;76285.81;5281305;28;20329;-80
2023/08/15 13:15:28;;;;;;;6.35;2.58;;;;;;;-145.79;50.71;76309.13;5270194;28;20061;-79
2023/08/15 13:17:59;;;;;;;5.88;4.30;;;;;;;-145.79;51.56;76321.84;5278042;28;20379;-83
2023/08/15 13:20:31;;;;;;;6.28;2.53;;;;;;;-145.79;52.37;76309.13;5283768;28;20039;-83
2023/08/15 13:23:02;;;;;;;6.68;3.25;;;;;;;-145.79;52.15;76273.09;5283073;28;20543;-84
2023/08/15 13:25:34;;;;;;;4.32;2.38;;;;;;;-145.79;51.44;76258.25;5284784;28;20039;-83
2023/08/15 13:28:05;;;;;;;4.00;2.60;;;;;;;-145.79;51.15;76277.34;5284945;28;20540;-82
2023/08/15 13:30:38;;;;;;;4.50;2.83;;;;;;;-145.79;51.71;76237.06;5281392;28;20032;-83
2023/08/15 13:33:09;;;;;;;7.10;2.72;;;;;;;-145.79;50.12;76211.66;5282686;28;20184;-80
2023/08/15 13:35:41;;;;;;;3.97;2.42;;;;;;;-145.79;49.48;76192.56;5284095;28;20050;-85
2023/08/15 13:38:13;;;;;;;4.43;2.33;;;;;;;-145.79;49.13;76167.16;5284538;28;20029;-85
2023/08/15 13:40:45;;;;;;;7.40;3.38;;;;;;;-145.79;48.16;76179.88;5285045;28;20028;-81
2023/08/15 13:43:16;;;;;;;14.93;13.25;;;;;;;-145.79;48.05;76169.25;5283929;28;20471;-82
2023/08/15 13:45:49;;;;;;;7.05;3.88;;;;;;;-145.79;47.36;76169.25;5284815;28;20030;-82
2023/08/15 13:48:20;;;;;;;4.18;2.67;;;;;;;-145.79;47.95;76165.03;5280160;28;20021;-82
2023/08/15 13:50:53;;;;;;;3.75;2.70;;;;;;;-145.79;48.03;76181.97;5283471;28;20028;-83
2023/08/15 13:53:24;;;;;;;4.95;2.45;;;;;;;-145.79;48.21;76203.16;5283970;28;20028;-86
2023/08/15 13:55:56;;;;;;;4.93;2.35;;;;;;;-145.79;47.98;76211.66;5285695;28;20032;-86
2023/08/15 13:58:27;;;;;;;5.45;2.80;;;;;;;-145.79;48.21;76179.88;5284322;28;20028;-87
2023/08/15 14:00:59;;;;;;;6.38;2.80;;;;;;;-145.79;47.82;76133.25;5284744;28;20032;-82
2023/08/15 14:03:31;;;;;;;4.38;2.40;;;;;;;-145.79;46.59;76148.06;5284554;28;20052;-83
2023/08/15 14:06:07;;;;;;;4.00;3.03;;;;;;;-145.79;48.66;76181.97;5283657;28;20097;-83
2023/08/15 14:08:38;;;;;;;5.00;2.95;;;;;;;-145.79;48.99;76203.16;5289005;28;20078;-83
2023/08/15 14:11:10;;;;;;;5.45;2.50;;;;;;;-145.79;49.29;76205.28;5283793;28;20535;-82
2023/08/15 14:13:42;;;;;;;5.38;2.40;;;;;;;-145.79;48.08;76169.25;5283721;28;20102;-82
2023/08/15 14:16:14;;;;;;;4.55;2.78;;;;;;;-145.79;47.83;76126.88;5284490;28;20027;-83
2023/08/15 14:18:45;;;;;;;5.88;3.45;;;;;;;-145.79;46.82;76097.22;5283557;28;20024;-81
2023/08/15 14:21:16;;;;;;;4.53;2.35;;;;;;;-145.79;46.94;76122.66;5282955;28;20028;-82
2023/08/15 14:23:48;;;;;;;5.68;2.63;;;;;;;-145.79;46.80;76141.72;5282712;28;20103;-80
2023/08/15 14:26:19;;;;;;;5.72;3.42;;;;;;;-145.79;47.48;76145.97;5283877;28;20031;-80
2023/08/15 14:28:50;;;;;;;3.38;1.83;;;;;;;-145.79;46.57;76173.50;5283408;28;20150;-81
2023/08/15 14:31:22;;;;;;;10.73;7.60;;;;;;;-145.79;47.41;76188.34;5282717;28;20480;-79
2023/08/15 14:34:03;;;;;;;8.25;4.82;;;;;;;-145.79;48.08;76188.34;5282420;28;20054;-80
2023/08/15 14:36:37;;;;;;;5.85;2.80;;;;;;;-145.79;49.19;76211.66;5282008;28;20476;-81
2023/08/15 14:39:08;;;;;;;6.35;3.10;;;;;;;-145.79;51.92;76241.31;5277204;28;20031;-80
2023/08/15 14:41:40;;;;;;;4.90;3.38;;;;;;;-145.79;52.80;76232.84;5283298;28;20028;-80
2023/08/15 14:44:11;;;;;;;7.75;3.70;;;;;;;-145.79;53.36;76247.66;5283359;28;20032;-78
2023/08/15 14:46:42;;;;;;;5.75;3.22;;;;;;;-145.79;52.76;76228.59;5282502;28;20475;-81
2023/08/15 14:49:14;;;;;;;5.07;3.05;;;;;;;-145.79;52.04;76194.69;5283466;28;20032;-80
2023/08/15 14:51:45;;;;;;;5.00;3.17;;;;;;;-145.79;51.89;76232.84;5280899;28;20028;-81
2023/08/15 14:54:17;;;;;;;6.20;3.63;;;;;;;-145.79;51.98;76228.59;5280062;28;20066;-80
2023/08/15 14:56:48;;;;;;;6.57;3.20;;;;;;;-145.79;51.63;76254.03;5283570;28;20016;-81
2023/08/15 14:59:20;;;;;;;6.60;3.25;;;;;;;-145.79;51.69;76266.75;5282996;28;20387;-82
2023/08/15 15:01:51;;;;;;;5.72;3.40;;;;;;;-145.79;51.87;76256.16;5282004;28;20032;-82
2023/08/15 15:04:22;;;;;;;8.02;5.75;;;;;;;-145.79;51.49;76247.66;5278643;28;20099;-80
2023/08/15 15:06:54;;;;;;;7.15;3.78;;;;;;;-145.79;51.77;76224.38;5282865;28;20028;-80
2023/08/15 15:09:25;;;;;;;9.07;6.70;;;;;;;-145.79;52.66;76211.66;5280557;28;20069;-81
2023/08/15 15:11:57;;;;;;;5.13;3.42;;;;;;;-145.79;53.30;76215.88;5279054;28;21521;-81
2023/08/15 15:14:28;;;;;;;3.25;2.80;;;;;;;-145.79;53.33;76220.13;5276651;28;20028;-81
2023/08/15 15:17:00;;;;;;;5.97;4.30;;;;;;;-145.79;53.69;76237.06;5282548;28;20047;-82
2023/08/15 15:19:33;;;;;;;6.50;3.40;;;;;;;-145.79;54.19;76254.03;5283077;28;20024;-80
2023/08/15 15:22:06;;;;;;;5.05;3.72;;;;;;;-145.79;54.64;76268.84;5275330;28;20397;-78
2023/08/15 15:24:37;;;;;;;5.28;3.40;;;;;;;-145.79;54.24;76258.25;5282436;28;20537;-81
2023/08/15 15:27:09;;;;;;;8.32;6.35;;;;;;;-145.79;54.80;76277.34;5278351;28;20028;-77
2023/08/15 15:29:40;;;;;;;6.07;5.20;;;;;;;-145.79;54.35;76270.97;5282527;28;20467;-78
2023/08/15 15:32:12;;;;;;;6.75;4.65;;;;;;;-145.79;54.46;76270.97;5280476;28;20074;-81
2023/08/15 15:34:43;;;;;;;5.20;3.50;;;;;;;-145.79;54.45;76275.22;5283752;28;20043;-81
2023/08/15 15:37:14;;;;;;;7.22;3.33;;;;;;;-145.79;54.82;76266.75;5280930;28;20395;-78
2023/08/15 15:39:46;;;;;;;5.82;4.07;;;;;;;-145.79;53.32;76273.09;5276172;28;20055;-72
2023/08/15 15:42:17;;;;;;;5.90;3.28;;;;;;;-145.79;53.04;76277.34;5279583;28;20036;-71
2023/08/15 15:44:48;;;;;;;3.97;3.55;;;;;;;-145.79;53.57;76279.47;5285391;28;20025;-72
2023/08/15 15:47:20;;;;;;;5.22;3.22;;;;;;;-145.79;53.40;76281.56;5284420;28;20091;-72
2023/08/15 15:49:51;;;;;;;3.72;3.05;;;;;;;-145.79;54.73;76315.47;5285508;28;20541;-73
2023/08/15 15:52:23;;;;;;;5.93;3.13;;;;;;;-145.79;54.87;76296.41;5285347;28;20113;-74
2023/08/15 15:54:54;;;;;;;4.32;2.92;;;;;;;-145.79;55.17;76323.97;5286061;28;20051;-73
2023/08/15 15:57:25;;;;;;;4.80;3.25;;;;;;;-145.79;55.04;76334.56;5285443;28;20413;-73
2023/08/15 15:59:56;;;;;;;8.85;5.32;;;;;;;-145.79;55.15;76340.91;5286199;28;20028;-73
2023/08/15 16:02:28;;;;;;;7.03;3.40;;;;;;;-145.79;55.75;76340.91;5285973;28;20040;-73
2023/08/15 16:04:59;;;;;;;3.67;3.00;;;;;;;-145.79;55.99;76351.50;5278994;28;20535;-73
2023/08/15 16:07:31;;;;;;;5.25;3.00;;;;;;;-145.79;55.78;76357.84;5285806;28;20036;-71
2023/08/15 16:10:05;;;;;;;5.55;4.18;;;;;;;-145.79;55.86;76351.50;5286396;28;20031;-76
2023/08/15 16:12:37;;;;;;;3.08;2.78;;;;;;;-145.79;56.24;76368.47;5285356;28;20036;-76
2023/08/15 16:15:09;;;;;;;3.72;2.88;;;;;;;-145.79;55.94;76349.38;5267375;28;20017;-72
2023/08/15 16:17:42;;;;;;;5.80;3.45;;;;;;;-145.79;56.54;76364.22;5284569;28;20031;-72
2023/08/15 16:20:13;;;;;;;3.67;2.95;;;;;;;-145.79;56.61;76349.38;5285425;28;20032;-72
2023/08/15 16:22:45;;;;;;;2.95;2.50;;;;;;;-145.79;56.61;76364.22;5284770;28;20059;-72
2023/08/15 16:25:16;;;;;;;6.65;3.90;;;;;;;-145.79;57.05;76370.56;5285021;28;20060;-70
2023/08/15 16:27:47;;;;;;;3.95;2.60;;;;;;;-145.79;56.62;76393.88;5285434;28;20037;-72
2023/08/15 16:30:19;;;;;;;3.70;2.83;;;;;;;-145.79;56.92;76393.88;5285632;28;20341;-72
2023/08/15 16:32:53;;;;;;;7.82;2.65;;;;;;;-145.79;56.84;76391.78;5284177;28;20161;-72
2023/08/15 16:35:24;;;;;;;4.47;2.83;;;;;;;-145.79;57.33;76402.38;5277558;28;20360;-71
2023/08/15 16:37:56;;;;;;;4.63;3.47;;;;;;;-145.79;57.70;76415.06;5282940;28;20037;-72
2023/08/15 16:40:27;;;;;;;5.50;3.08;;;;;;;-145.79;57.45;76415.06;5284595;28;20021;-72
2023/08/15 16:43:12;;;;;;;3.22;2.88;;;;;;;-145.79;57.51;76406.59;5285659;28;20052;-72
2023/08/15 16:45:45;;;;;;;8.65;4.90;;;;;;;-145.79;57.61;76396.00;5277534;28;20123;-71
2023/08/15 16:48:16;;;;;;;5.95;4.13;;;;;;;-145.79;57.10;76389.66;5280572;28;20029;-71
2023/08/15 16:50:48;;;;;;;3.90;3.50;;;;;;;-145.79;56.61;76385.41;5284735;28;20033;-71
2023/08/15 16:53:19;;;;;;;5.30;3.35;;;;;;;-145.79;56.21;76389.66;5283973;28;20032;-72
